KELP/ELP METAR and TAF weather

Enter ICAO airport designator
Station Type Date Time Source
KELP METAR 2020/12/05 05:51 UTC NOAA

KELP 050551Z 10003KT 10SM FEW100 FEW200 03/M16 A3025 RMK AO2 SLP229 T00281156 10106 20028 51013


Station Type Date Time Source
KELP Decoded METAR 2020/12/05 05:51 UTC NOAA

EL PASO INTERNATIONAL AIRPORT , TX, United States (KELP) 31-49N 106-23W 1197M
Dec 05, 2020 - 12:51 AM EST / 2020.12.05 0551 UTC
Wind: from the E (100 degrees) at 3 MPH (3 KT):0
Visibility: 10 mile(s):0
Sky conditions: mostly clear
Temperature: 37.0 F (2.8 C)
Dew Point: 3.9 F (-15.6 C)
Relative Humidity: 24%
Pressure (altimeter): 30.25 in. Hg (1024 hPa)
Pressure tendency: 0.04 inches (1.3 hPa) higher than three hours ago
ob: KELP 050551Z 10003KT 10SM FEW100 FEW200 03/M16 A3025 RMK AO2 SLP229 T00281156 10106 20028 51013
cycle: 6

Station Type Date Time Source
KELP TAF 2020/12/05 06:30 UTC NOAA

TAF KELP 050527Z 0506/0606 02003KT P6SM FEW100
FM051800 31007KT P6SM BKN250
FM060000 27005KT P6SM BKN250

Example: see airport list